Time,TemperatureF,DewpointF,PressureIn,WindDirection,WindDirectionDegrees,WindSpeedMPH,WindSpeedGustMPH,Humidity,HourlyPrecipIn,Conditions,Clouds,dailyrainin,SoftwareType,DateUTC
2013-01-14 00:13:00,40.4,36.0,30.17,NNW,330,4.0,6.0,85,0.00,,,0.00,weatherlink.com 1.10,2013-01-14 06:13:00,
2013-01-14 00:28:00,40.6,38.0,30.19,NNW,337,1.0,4.0,89,0.00,,,0.00,weatherlink.com 1.10,2013-01-14 06:28:00,
2013-01-14 00:43:00,40.7,36.0,30.19,NNW,337,0.0,3.0,84,0.00,,,0.00,weatherlink.com 1.10,2013-01-14 06:43:00,
2013-01-14 00:58:00,41.0,37.0,30.19,NNW,331,3.0,3.0,86,0.00,,,0.00,weatherlink.com 1.10,2013-01-14 06:58:00,
2013-01-14 01:13:00,41.6,38.0,30.18,NE,42,1.0,5.0,87,0.00,,,0.00,weatherlink.com 1.10,2013-01-14 07:13:00,
2013-01-14 01:28:00,42.1,38.0,30.17,NW,320,2.0,6.0,86,0.00,,,0.00,weatherlink.com 1.10,2013-01-14 07:28:00,
2013-01-14 01:43:00,42.3,38.0,30.17,NNE,32,1.0,5.0,86,0.00,,,0.00,weatherlink.com 1.10,2013-01-14 07:43:00,
2013-01-14 01:58:00,42.2,38.0,30.16,NNW,347,2.0,6.0,86,0.00,,,0.00,weatherlink.com 1.10,2013-01-14 07:58:00,
2013-01-14 02:13:00,41.8,38.0,30.16,North,360,2.0,8.0,85,0.00,,,0.00,weatherlink.com 1.10,2013-01-14 08:13:00,
2013-01-14 02:28:00,41.6,37.0,30.14,NNW,346,3.0,5.0,85,0.00,,,0.00,weatherlink.com 1.10,2013-01-14 08:28:00,
2013-01-14 02:43:00,41.3,37.0,30.15,NNW,338,3.0,7.0,84,0.00,,,0.00,weatherlink.com 1.10,2013-01-14 08:43:00,
2013-01-14 02:58:00,41.0,36.0,30.14,NNW,346,3.0,7.0,82,0.00,,,0.00,weatherlink.com 1.10,2013-01-14 08:58:00,
2013-01-14 03:13:00,40.6,35.0,30.14,NNW,329,2.0,10.0,80,0.00,,,0.00,weatherlink.com 1.10,2013-01-14 09:13:00,
2013-01-14 03:28:00,40.4,34.0,30.13,NW,318,5.0,7.0,79,0.00,,,0.00,weatherlink.com 1.10,2013-01-14 09:28:00,
2013-01-14 03:43:00,40.5,34.0,30.14,NNW,339,2.0,7.0,79,0.00,,,0.00,weatherlink.com 1.10,2013-01-14 09:43:00,
2013-01-14 03:58:00,40.5,34.0,30.15,NNW,331,3.0,6.0,79,0.00,,,0.00,weatherlink.com 1.10,2013-01-14 09:58:00,
2013-01-14 04:13:00,40.5,35.0,30.16,NNW,345,2.0,5.0,82,0.00,,,0.00,weatherlink.com 1.10,2013-01-14 10:13:00,
2013-01-14 04:28:00,40.2,35.0,30.15,NW,325,1.0,9.0,83,0.00,,,0.00,weatherlink.com 1.10,2013-01-14 10:28:00,
2013-01-14 04:43:00,40.0,35.0,30.16,NNW,340,5.0,8.0,83,0.00,,,0.00,weatherlink.com 1.10,2013-01-14 10:43:00,
2013-01-14 04:58:00,39.8,35.0,30.19,NNW,327,1.0,8.0,82,0.00,,,0.00,weatherlink.com 1.10,2013-01-14 10:58:00,
2013-01-14 05:14:00,39.7,35.0,30.18,NNW,348,4.0,8.0,83,0.00,,,0.00,weatherlink.com 1.10,2013-01-14 11:14:00,
2013-01-14 05:29:00,39.5,34.0,30.17,North,355,3.0,9.0,82,0.00,,,0.00,weatherlink.com 1.10,2013-01-14 11:29:00,
2013-01-14 05:44:00,39.4,34.0,30.18,NNW,348,2.0,8.0,82,0.00,,,0.00,weatherlink.com 1.10,2013-01-14 11:44:00,
2013-01-14 05:59:00,39.3,34.0,30.19,North,349,5.0,7.0,82,0.00,,,0.00,weatherlink.com 1.10,2013-01-14 11:59:00,
2013-01-14 06:14:00,39.3,35.0,30.17,NNW,347,0.0,4.0,84,0.00,,,0.00,weatherlink.com 1.10,2013-01-14 12:14:00,
2013-01-14 06:29:00,39.1,34.0,30.19,NNW,334,3.0,7.0,83,0.00,,,0.00,weatherlink.com 1.10,2013-01-14 12:29:00,
2013-01-14 06:44:00,38.4,35.0,30.20,NNW,336,3.0,6.0,87,0.01,,,0.01,weatherlink.com 1.10,2013-01-14 12:44:00,
2013-01-14 06:59:00,38.0,35.0,30.20,NNW,331,0.0,6.0,89,0.02,,,0.02,weatherlink.com 1.10,2013-01-14 12:59:00,
2013-01-14 07:14:00,37.5,35.0,30.18,NNW,348,3.0,7.0,90,0.02,,,0.02,weatherlink.com 1.10,2013-01-14 13:14:00,
2013-01-14 07:29:00,37.4,35.0,30.22,NNW,342,5.0,8.0,92,0.04,,,0.04,weatherlink.com 1.10,2013-01-14 13:29:00,
2013-01-14 07:44:00,37.0,35.0,30.22,NW,321,2.0,7.0,92,0.05,,,0.06,weatherlink.com 1.10,2013-01-14 13:44:00,
2013-01-14 07:59:00,36.7,35.0,30.23,North,355,4.0,7.0,92,0.05,,,0.07,weatherlink.com 1.10,2013-01-14 13:59:00,
2013-01-14 08:14:00,36.4,34.0,30.23,NNW,337,2.0,8.0,92,0.06,,,0.08,weatherlink.com 1.10,2013-01-14 14:14:00,
2013-01-14 08:29:00,36.0,34.0,30.24,NNW,333,3.0,8.0,92,0.04,,,0.08,weatherlink.com 1.10,2013-01-14 14:29:00,
2013-01-14 08:44:00,35.8,34.0,30.23,NW,307,8.0,9.0,93,0.03,,,0.09,weatherlink.com 1.10,2013-01-14 14:44:00,
2013-01-14 08:59:00,35.5,34.0,30.25,NNW,346,4.0,14.0,93,0.01,,,0.09,weatherlink.com 1.10,2013-01-14 14:59:00,
2013-01-14 09:14:00,34.9,33.0,30.26,NNW,329,4.0,7.0,93,0.02,,,0.10,weatherlink.com 1.10,2013-01-14 15:14:00,
2013-01-14 09:29:00,35.0,33.0,30.27,North,355,2.0,7.0,93,0.03,,,0.11,weatherlink.com 1.10,2013-01-14 15:29:00,
2013-01-14 09:44:00,34.8,33.0,30.28,NNW,333,4.0,8.0,93,0.03,,,0.12,weatherlink.com 1.10,2013-01-14 15:44:00,
2013-01-14 09:59:00,35.0,33.0,30.28,NNW,337,3.0,8.0,93,0.04,,,0.13,weatherlink.com 1.10,2013-01-14 15:59:00,
2013-01-14 10:14:00,35.1,33.0,30.27,NNW,333,4.0,9.0,93,0.03,,,0.13,weatherlink.com 1.10,2013-01-14 16:14:00,
2013-01-14 10:29:00,35.0,33.0,30.27,NNW,340,4.0,8.0,93,0.02,,,0.13,weatherlink.com 1.10,2013-01-14 16:29:00,
2013-01-14 10:44:00,35.0,33.0,30.26,NNW,341,2.0,6.0,92,0.01,,,0.13,weatherlink.com 1.10,2013-01-14 16:44:00,
2013-01-14 10:59:00,35.1,33.0,30.26,NNW,329,1.0,5.0,93,0.00,,,0.13,weatherlink.com 1.10,2013-01-14 16:59:00,
2013-01-14 11:14:00,35.5,34.0,30.26,NW,308,3.0,4.0,93,0.00,,,0.13,weatherlink.com 1.10,2013-01-14 17:14:00,
2013-01-14 11:29:00,35.7,34.0,30.24,NNW,330,5.0,7.0,92,0.00,,,0.13,weatherlink.com 1.10,2013-01-14 17:29:00,
2013-01-14 11:44:00,36.2,34.0,30.23,NNW,344,0.0,5.0,91,0.00,,,0.13,weatherlink.com 1.10,2013-01-14 17:44:00,
2013-01-14 11:59:00,36.9,34.0,30.22,ENE,64,2.0,6.0,90,0.00,,,0.13,weatherlink.com 1.10,2013-01-14 17:59:00,
2013-01-14 12:14:00,37.6,34.0,30.21,NNW,338,4.0,8.0,88,0.00,,,0.13,weatherlink.com 1.10,2013-01-14 18:14:00,
2013-01-14 12:29:00,38.0,35.0,30.21,NNW,327,4.0,6.0,88,0.00,,,0.13,weatherlink.com 1.10,2013-01-14 18:29:00,
2013-01-14 12:44:00,38.6,35.0,30.21,NNE,28,2.0,4.0,87,0.00,,,0.13,weatherlink.com 1.10,2013-01-14 18:44:00,
2013-01-14 12:59:00,38.7,35.0,30.20,North,355,2.0,5.0,86,0.00,,,0.13,weatherlink.com 1.10,2013-01-14 18:59:00,
2013-01-14 13:14:00,38.7,35.0,30.20,NE,47,0.0,3.0,86,0.00,,,0.13,weatherlink.com 1.10,2013-01-14 19:14:00,
2013-01-14 13:29:00,39.0,35.0,30.20,NNW,327,2.0,5.0,86,0.00,,,0.13,weatherlink.com 1.10,2013-01-14 19:29:00,
2013-01-14 13:44:00,39.8,36.0,30.19,NW,320,1.0,4.0,87,0.00,,,0.13,weatherlink.com 1.10,2013-01-14 19:44:00,
2013-01-14 13:59:00,40.3,37.0,30.19,North,351,2.0,3.0,86,0.00,,,0.13,weatherlink.com 1.10,2013-01-14 19:59:00,
2013-01-14 14:14:00,41.2,37.0,30.19,NNW,347,2.0,5.0,84,0.00,,,0.13,weatherlink.com 1.10,2013-01-14 20:14:00,
2013-01-14 14:29:00,41.7,37.0,30.18,NE,51,2.0,4.0,82,0.00,,,0.13,weatherlink.com 1.10,2013-01-14 20:29:00,
2013-01-14 14:44:00,41.5,37.0,30.19,NW,324,3.0,7.0,83,0.00,,,0.13,weatherlink.com 1.10,2013-01-14 20:44:00,
2013-01-14 14:59:00,41.4,36.0,30.19,NNW,335,3.0,6.0,82,0.00,,,0.13,weatherlink.com 1.10,2013-01-14 20:59:00,
2013-01-14 15:14:00,41.6,36.0,30.18,NNW,343,0.0,5.0,81,0.00,,,0.13,weatherlink.com 1.10,2013-01-14 21:14:00,
2013-01-14 15:29:00,41.9,37.0,30.19,NW,326,1.0,4.0,82,0.00,,,0.13,weatherlink.com 1.10,2013-01-14 21:29:00,
2013-01-14 15:44:00,42.0,37.0,30.19,NNW,328,3.0,3.0,81,0.00,,,0.13,weatherlink.com 1.10,2013-01-14 21:44:00,
2013-01-14 15:59:00,41.8,36.0,30.19,NW,323,4.0,5.0,81,0.00,,,0.13,weatherlink.com 1.10,2013-01-14 21:59:00,
2013-01-14 16:14:00,41.3,36.0,30.20,NNE,16,1.0,5.0,81,0.00,,,0.13,weatherlink.com 1.10,2013-01-14 22:14:00,
2013-01-14 16:29:00,41.2,36.0,30.20,North,5,2.0,4.0,82,0.00,,,0.13,weatherlink.com 1.10,2013-01-14 22:29:00,
2013-01-14 16:44:00,40.8,36.0,30.20,WNW,294,1.0,6.0,82,0.00,,,0.13,weatherlink.com 1.10,2013-01-14 22:44:00,
2013-01-14 16:59:00,40.3,35.0,30.20,North,9,1.0,6.0,81,0.00,,,0.13,weatherlink.com 1.10,2013-01-14 22:59:00,
2013-01-14 17:14:00,40.0,35.0,30.21,NNW,330,2.0,5.0,82,0.00,,,0.13,weatherlink.com 1.10,2013-01-14 23:14:00,
2013-01-14 17:29:00,39.7,35.0,30.21,NW,323,0.0,6.0,83,0.00,,,0.13,weatherlink.com 1.10,2013-01-14 23:29:00,
2013-01-14 17:44:00,39.4,35.0,30.20,NW,312,2.0,4.0,83,0.00,,,0.13,weatherlink.com 1.10,2013-01-14 23:44:00,
2013-01-14 17:59:00,39.0,35.0,30.21,NW,317,1.0,4.0,84,0.00,,,0.13,weatherlink.com 1.10,2013-01-14 23:59:00,
2013-01-14 18:14:00,38.7,34.0,30.21,NNW,331,0.0,5.0,84,0.00,,,0.13,weatherlink.com 1.10,2013-01-15 00:14:00,
2013-01-14 18:29:00,38.4,34.0,30.22,NNW,335,2.0,7.0,83,0.00,,,0.13,weatherlink.com 1.10,2013-01-15 00:29:00,
2013-01-14 18:45:00,38.2,34.0,30.22,North,349,2.0,7.0,83,0.00,,,0.13,weatherlink.com 1.10,2013-01-15 00:45:00,
2013-01-14 19:00:00,37.9,33.0,30.22,NNE,16,1.0,6.0,83,0.00,,,0.13,weatherlink.com 1.10,2013-01-15 01:00:00,
2013-01-14 19:15:00,37.6,33.0,30.21,North,355,1.0,8.0,84,0.00,,,0.13,weatherlink.com 1.10,2013-01-15 01:15:00,
2013-01-14 19:30:00,37.4,33.0,30.21,NNW,341,1.0,5.0,83,0.00,,,0.13,weatherlink.com 1.10,2013-01-15 01:30:00,
2013-01-14 19:45:00,37.2,33.0,30.20,North,5,2.0,5.0,85,0.00,,,0.13,weatherlink.com 1.10,2013-01-15 01:45:00,
2013-01-14 20:00:00,36.9,33.0,30.20,NNE,33,0.0,5.0,84,0.00,,,0.13,weatherlink.com 1.10,2013-01-15 02:00:00,
2013-01-14 20:15:00,36.7,33.0,30.19,North,5,1.0,5.0,85,0.00,,,0.13,weatherlink.com 1.10,2013-01-15 02:15:00,
2013-01-14 20:30:00,36.5,33.0,30.19,NNE,13,3.0,3.0,86,0.00,,,0.13,weatherlink.com 1.10,2013-01-15 02:30:00,
2013-01-14 20:45:00,36.4,33.0,30.19,West,259,0.0,4.0,86,0.00,,,0.13,weatherlink.com 1.10,2013-01-15 02:45:00,
2013-01-14 21:00:00,36.3,33.0,30.18,NNW,338,1.0,5.0,86,0.00,,,0.13,weatherlink.com 1.10,2013-01-15 03:00:00,
2013-01-14 21:15:00,36.2,33.0,30.18,WNW,302,3.0,3.0,87,0.00,,,0.13,weatherlink.com 1.10,2013-01-15 03:15:00,
2013-01-14 21:30:00,36.2,33.0,30.18,North,355,0.0,3.0,87,0.00,,,0.13,weatherlink.com 1.10,2013-01-15 03:30:00,
2013-01-14 21:45:00,36.1,33.0,30.18,NNW,330,2.0,5.0,87,0.00,,,0.13,weatherlink.com 1.10,2013-01-15 03:45:00,
2013-01-14 22:00:00,36.0,33.0,30.18,NNW,338,2.0,4.0,88,0.00,,,0.13,weatherlink.com 1.10,2013-01-15 04:00:00,
2013-01-14 22:15:00,36.0,33.0,30.17,NNW,339,0.0,6.0,88,0.00,,,0.13,weatherlink.com 1.10,2013-01-15 04:15:00,
2013-01-14 22:30:00,36.1,33.0,30.17,NNW,328,2.0,6.0,88,0.00,,,0.13,weatherlink.com 1.10,2013-01-15 04:30:00,
2013-01-14 22:45:00,36.0,33.0,30.17,NNW,328,3.0,5.0,88,0.00,,,0.13,weatherlink.com 1.10,2013-01-15 04:45:00,
2013-01-14 23:15:00,35.9,33.0,30.17,NNW,338,1.0,3.0,88,0.00,,,0.13,weatherlink.com 1.10,2013-01-15 05:15:00,
2013-01-14 23:30:00,35.8,33.0,30.16,NW,324,0.0,6.0,89,0.00,,,0.13,weatherlink.com 1.10,2013-01-15 05:30:00,
2013-01-14 23:45:00,35.7,33.0,30.16,NNW,348,2.0,3.0,88,0.00,,,0.13,weatherlink.com 1.10,2013-01-15 05:45:00,